Weather at Aviosuperficie "Skydive Venice"

Public forecast

Using degrees Celsius for public forecast. Weather courtesy of forecast.io.

Closest aviation weather report (METAR) to Aviosuperficie "Skydive Venice"

Closest report is Udine-Rivolto Air Base, 20.6 nm (38.1 km) NE.

2024/05/29 11:55 (retrieved 49 minutes ago)

LIPI 291155Z 16002KT 9999 FEW060 24/13 Q1014 RMK BKN BKN200 VIS MIN 9999 WIND THR06 05003KT WIND THR24 15004KT BLU

Closest aviation forecast (TAF) to Aviosuperficie "Skydive Venice"

Closest forecast is Venice Marco Polo Airport, 20.9 nm (38.7 km) SW.

2024/05/29 12:00 (retrieved 44 minutes ago)

TAF LIPZ 291100Z 2912/3018 17012KT 9999 FEW030 BECMG 2920/2922 VRB05KT TEMPO 3009/3018 4000 TSRA BKN012